Time;durP1;ratioP1;P1;durP2;ratioP2;P2;SDS_P1;SDS_P2;PMS_P1;PMS_P2;Temp;Humidity;BMP_temperature;BMP_pressure;BME280_temperature;BME280_humidity;BME280_pressure;Samples;Min_cycle;Max_cycle;Signal;HPM_P1;HPM_P2
2021/12/03 00:00:05;;;;;;;;;;;;;;;;;;2073419;28;995;-84
2021/12/03 00:01:07;;;;;;;;;;;;;;;;;;2082158;28;684;-82
2021/12/03 00:02:09;;;;;;;;;;;;;;;;;;2072689;28;2019;-83
2021/12/03 00:03:10;;;;;;;;;;;;;;;;;;2073336;28;1157;-83
2021/12/03 00:04:11;;;;;;;;;;;;;;;;;;2065309;28;1260;-82
2021/12/03 00:05:12;;;;;;;;;;;;;;;;;;2073365;28;929;-82
2021/12/03 00:06:14;;;;;;;;;;;;;;;;;;2073009;28;2004;-82
2021/12/03 00:07:15;;;;;;;;;;;;;;;;;;2065375;28;1315;-84
2021/12/03 00:08:17;;;;;;;;;;;;;;;;;;2064235;28;1390;-83
2021/12/03 00:09:20;;;;;;;;;;;;;;;;;;2065766;28;942;-82
2021/12/03 00:10:22;;;;;;;;;;;;;;;;;;2065058;28;1287;-82
2021/12/03 00:11:24;;;;;;;;;;;;;;;;;;2059338;28;2139;-81
2021/12/03 00:12:25;;;;;;;;;;;;;;;;;;2057247;28;1945;-83
2021/12/03 00:13:27;;;;;;;;;;;;;;;;;;2073551;28;1212;-82
2021/12/03 00:14:28;;;;;;;;;;;;;;;;;;2073025;28;1424;-81
2021/12/03 00:15:30;;;;;;;;;;;;;;;;;;2074630;28;1129;-82
2021/12/03 00:16:32;;;;;;;;;;;;;;;;;;2071034;28;1914;-82
2021/12/03 00:17:33;;;;;;;;;;;;;;;;;;2066933;28;942;-82
2021/12/03 00:18:35;;;;;;;;;;;;;;;;;;2075256;28;1914;-81
2021/12/03 00:19:35;;;;;;;;;;;;;;;;;;2066507;28;1169;-82
2021/12/03 00:20:39;;;;;;;;;;;;;;;;;;2066379;28;1060;-83
2021/12/03 00:21:39;;;;;;;;;;;;;;;;;;2074052;28;1826;-82
2021/12/03 00:22:41;;;;;;;;;;;;;;;;;;2074640;28;1243;-82
2021/12/03 00:23:42;;;;;;;;;;;;;;;;;;2074452;28;1214;-82
2021/12/03 00:24:45;;;;;;;;;;;;;;;;;;2074554;28;1144;-82
2021/12/03 00:25:45;;;;;;;;;;;;;;;;;;2074820;28;1311;-82
2021/12/03 00:26:47;;;;;;;;;;;;;;;;;;2066506;28;2075;-83
2021/12/03 00:27:48;;;;;;;;;;;;;;;;;;2066672;28;964;-85
2021/12/03 00:28:50;;;;;;;;;;;;;;;;;;2074740;28;1220;-82
2021/12/03 00:29:50;;;;;;;;;;;;;;;;;;2074972;28;1063;-82
2021/12/03 00:30:52;;;;;;;;;;;;;;;;;;2074593;28;1301;-82
2021/12/03 00:31:53;;;;;;;;;;;;;;;;;;2079863;28;1853;-84
2021/12/03 00:32:54;;;;;;;;;;;;;;;;;;2074849;28;1282;-83
2021/12/03 00:33:55;;;;;;;;;;;;;;;;;;2066347;28;1231;-85
2021/12/03 00:34:57;;;;;;;;;;;;;;;;;;2074952;28;930;-83
2021/12/03 00:35:59;;;;;;;;;;;;;;;;;;2083258;28;831;-82
2021/12/03 00:37:00;;;;;;;;;;;;;;;;;;2083557;28;915;-82
2021/12/03 00:38:02;;;;;;;;;;;;;;;;;;2083285;28;808;-82
2021/12/03 00:39:04;;;;;;;;;;;;;;;;;;2074845;28;1975;-82
2021/12/03 00:40:08;;;;;;;;;;;;;;;;;;2074635;28;1397;-82
2021/12/03 00:41:13;;;;;;;;;;;;;;;;;;2074442;28;1905;-84
2021/12/03 00:42:16;;;;;;;;;;;;;;;;;;2074290;28;1106;-82
2021/12/03 00:43:18;;;;;;;;;;;;;;;;;;2082572;28;942;-82
2021/12/03 00:44:23;;;;;;;;;;;;;;;;;;2074642;28;1419;-83
2021/12/03 00:45:24;;;;;;;;;;;;;;;;;;2074846;28;1277;-82
2021/12/03 00:46:25;;;;;;;;;;;;;;;;;;2082838;28;903;-82
2021/12/03 00:47:52;;;;;;;;;;;;;;;;;;2083380;28;961;-82
2021/12/03 00:48:53;;;;;;;;;;;;;;;;;;2074564;28;1324;-83
2021/12/03 00:49:55;;;;;;;;;;;;;;;;;;2074360;28;831;-82
2021/12/03 00:50:56;;;;;;;;;;;;;;;;;;2074511;28;1185;-81
2021/12/03 00:51:57;;;;;;;;;;;;;;;;;;2072973;28;1961;-82
2021/12/03 00:52:58;;;;;;;;;;;;;;;;;;2074655;28;1280;-82
2021/12/03 00:54:00;;;;;;;;;;;;;;;;;;2074410;28;1429;-82
2021/12/03 00:55:00;;;;;;;;;;;;;;;;;;2079512;28;942;-82
2021/12/03 00:56:04;;;;;;;;;;;;;;;;;;2083351;28;1052;-82
2021/12/03 00:57:05;;;;;;;;;;;;;;;;;;2074353;28;1241;-82
2021/12/03 00:58:06;;;;;;;;;;;;;;;;;;2074631;28;1237;-83
2021/12/03 00:59:08;;;;;;;;;;;;;;;;;;2072128;28;2025;-82
2021/12/03 01:00:11;;;;;;;;;;;;;;;;;;2066380;28;1228;-83
2021/12/03 01:01:13;;;;;;;;;;;;;;;;;;2074677;28;1260;-82
2021/12/03 01:02:13;;;;;;;;;;;;;;;;;;2074645;28;1474;-82
2021/12/03 01:03:15;;;;;;;;;;;;;;;;;;2074295;28;1356;-82
2021/12/03 01:04:17;;;;;;;;;;;;;;;;;;2082591;28;899;-82
2021/12/03 01:05:17;;;;;;;;;;;;;;;;;;2083643;28;1079;-82
2021/12/03 01:06:19;;;;;;;;;;;;;;;;;;2073769;28;1940;-82
2021/12/03 01:07:20;;;;;;;;;;;;;;;;;;2066260;28;1249;-83
2021/12/03 01:08:22;;;;;;;;;;;;;;;;;;2074341;28;1234;-82
2021/12/03 01:09:23;;;;;;;;;;;;;;;;;;2074260;28;1184;-82
2021/12/03 01:10:24;;;;;;;;;;;;;;;;;;2074579;28;1630;-83
2021/12/03 01:11:27;;;;;;;;;;;;;;;;;;2073949;28;1261;-82
2021/12/03 01:12:28;;;;;;;;;;;;;;;;;;2074358;28;1246;-82
2021/12/03 01:13:29;;;;;;;;;;;;;;;;;;2082470;28;1111;-82
2021/12/03 01:14:30;;;;;;;;;;;;;;;;;;2074521;28;1432;-82
2021/12/03 01:15:33;;;;;;;;;;;;;;;;;;2074274;28;1230;-82
2021/12/03 01:16:35;;;;;;;;;;;;;;;;;;2073720;28;2148;-82
2021/12/03 01:17:36;;;;;;;;;;;;;;;;;;2074234;28;1553;-82
2021/12/03 01:18:38;;;;;;;;;;;;;;;;;;2074261;28;1910;-83
2021/12/03 01:19:38;;;;;;;;;;;;;;;;;;2076513;28;1137;-82
2021/12/03 01:20:41;;;;;;;;;;;;;;;;;;2074149;28;1529;-82
2021/12/03 01:21:42;;;;;;;;;;;;;;;;;;2074398;28;1081;-82
2021/12/03 01:22:45;;;;;;;;;;;;;;;;;;2068690;28;1307;-82
2021/12/03 01:23:47;;;;;;;;;;;;;;;;;;2074614;28;936;-83
2021/12/03 01:24:48;;;;;;;;;;;;;;;;;;2074309;28;1324;-83
2021/12/03 01:25:50;;;;;;;;;;;;;;;;;;2066046;28;1335;-82
2021/12/03 01:26:54;;;;;;;;;;;;;;;;;;2060728;28;1891;-83
2021/12/03 01:27:58;;;;;;;;;;;;;;;;;;2066428;28;1319;-82
2021/12/03 01:29:00;;;;;;;;;;;;;;;;;;2074444;28;748;-82
2021/12/03 01:30:01;;;;;;;;;;;;;;;;;;2065941;28;1213;-82
2021/12/03 01:31:03;;;;;;;;;;;;;;;;;;2066101;28;1083;-82
2021/12/03 01:32:04;;;;;;;;;;;;;;;;;;2074644;28;859;-82
2021/12/03 01:33:06;;;;;;;;;;;;;;;;;;2074434;28;1219;-82
2021/12/03 01:34:07;;;;;;;;;;;;;;;;;;2074271;28;827;-82
2021/12/03 01:35:09;;;;;;;;;;;;;;;;;;2074828;28;929;-82
2021/12/03 01:36:10;;;;;;;;;;;;;;;;;;2074578;28;2003;-83
2021/12/03 01:37:12;;;;;;;;;;;;;;;;;;2082193;28;1291;-82
2021/12/03 01:38:13;;;;;;;;;;;;;;;;;;2082391;28;1370;-81
2021/12/03 01:39:15;;;;;;;;;;;;;;;;;;2082376;28;1910;-81
2021/12/03 01:40:17;;;;;;;;;;;;;;;;;;2073895;28;1425;-82
2021/12/03 01:41:19;;;;;;;;;;;;;;;;;;2080865;28;1901;-82
2021/12/03 01:42:21;;;;;;;;;;;;;;;;;;2073868;28;1207;-82
2021/12/03 01:43:24;;;;;;;;;;;;;;;;;;2074170;28;1315;-81
2021/12/03 01:44:25;;;;;;;;;;;;;;;;;;2082380;28;839;-82
2021/12/03 01:45:38;;;;;;;;;;;;;;;;;;2074246;28;1252;-82
2021/12/03 01:46:38;;;;;;;;;;;;;;;;;;2073955;28;1909;-81
2021/12/03 01:47:41;;;;;;;;;;;;;;;;;;2074158;28;876;-81
2021/12/03 01:48:42;;;;;;;;;;;;;;;;;;2074177;28;1247;-83
2021/12/03 01:49:44;;;;;;;;;;;;;;;;;;2074374;28;1345;-82
2021/12/03 01:50:46;;;;;;;;;;;;;;;;;;2074129;28;967;-82
2021/12/03 01:51:47;;;;;;;;;;;;;;;;;;2081865;28;2140;-82
2021/12/03 01:52:48;;;;;;;;;;;;;;;;;;2073967;28;1403;-83
2021/12/03 01:53:50;;;;;;;;;;;;;;;;;;2074404;28;1084;-83
2021/12/03 01:54:51;;;;;;;;;;;;;;;;;;2073860;28;1229;-81
2021/12/03 01:55:53;;;;;;;;;;;;;;;;;;2074203;28;1243;-84
2021/12/03 01:56:53;;;;;;;;;;;;;;;;;;2063616;28;1990;-82
2021/12/03 01:57:57;;;;;;;;;;;;;;;;;;2065871;28;1289;-82
2021/12/03 01:58:58;;;;;;;;;;;;;;;;;;2065718;28;1966;-82
2021/12/03 01:59:59;;;;;;;;;;;;;;;;;;2065810;28;1214;-83
2021/12/03 02:01:02;;;;;;;;;;;;;;;;;;2073932;28;1202;-83
2021/12/03 02:02:03;;;;;;;;;;;;;;;;;;2065185;28;1862;-82
2021/12/03 02:03:07;;;;;;;;;;;;;;;;;;2073985;28;1077;-82
2021/12/03 02:04:08;;;;;;;;;;;;;;;;;;2073804;28;1354;-83
2021/12/03 02:05:09;;;;;;;;;;;;;;;;;;2074001;28;1026;-84
2021/12/03 02:06:13;;;;;;;;;;;;;;;;;;2073299;28;1888;-82
2021/12/03 02:07:13;;;;;;;;;;;;;;;;;;2058207;28;1339;-82
2021/12/03 02:08:15;;;;;;;;;;;;;;;;;;2057593;28;1383;-82
2021/12/03 02:09:16;;;;;;;;;;;;;;;;;;2065784;28;1371;-82
2021/12/03 02:10:19;;;;;;;;;;;;;;;;;;2065961;28;1304;-82
2021/12/03 02:11:19;;;;;;;;;;;;;;;;;;2074629;28;1848;-83
2021/12/03 02:12:21;;;;;;;;;;;;;;;;;;2065589;28;1264;-83
2021/12/03 02:13:23;;;;;;;;;;;;;;;;;;2065872;28;1252;-82
2021/12/03 02:14:25;;;;;;;;;;;;;;;;;;2073914;28;776;-82
2021/12/03 02:15:26;;;;;;;;;;;;;;;;;;2074129;28;1161;-82
2021/12/03 02:16:27;;;;;;;;;;;;;;;;;;2064869;28;1874;-82
2021/12/03 02:17:28;;;;;;;;;;;;;;;;;;2066106;28;756;-82
2021/12/03 02:18:30;;;;;;;;;;;;;;;;;;2065567;28;1395;-83
2021/12/03 02:19:33;;;;;;;;;;;;;;;;;;2057812;28;1975;-82
2021/12/03 02:20:35;;;;;;;;;;;;;;;;;;2065970;28;1323;-83
2021/12/03 02:21:37;;;;;;;;;;;;;;;;;;2069184;28;2030;-82
2021/12/03 02:22:39;;;;;;;;;;;;;;;;;;2065593;28;1260;-84
2021/12/03 02:23:40;;;;;;;;;;;;;;;;;;2066044;28;1373;-83
2021/12/03 02:24:42;;;;;;;;;;;;;;;;;;2065750;28;1200;-83
2021/12/03 02:25:42;;;;;;;;;;;;;;;;;;2057573;28;1360;-82
2021/12/03 02:26:44;;;;;;;;;;;;;;;;;;2069856;28;1925;-82
2021/12/03 02:27:45;;;;;;;;;;;;;;;;;;2083069;28;963;-83
2021/12/03 02:28:48;;;;;;;;;;;;;;;;;;2082539;28;1036;-82
2021/12/03 02:29:48;;;;;;;;;;;;;;;;;;2082055;28;1363;-83
2021/12/03 02:30:50;;;;;;;;;;;;;;;;;;2081835;28;1054;-82
2021/12/03 02:31:51;;;;;;;;;;;;;;;;;;2082475;28;1892;-83
2021/12/03 02:32:54;;;;;;;;;;;;;;;;;;2082560;28;1016;-83
2021/12/03 02:33:54;;;;;;;;;;;;;;;;;;2073801;28;1245;-83
2021/12/03 02:34:56;;;;;;;;;;;;;;;;;;2065639;28;1244;-83
2021/12/03 02:35:57;;;;;;;;;;;;;;;;;;2073617;28;1322;-83
2021/12/03 02:37:00;;;;;;;;;;;;;;;;;;2073524;28;2087;-83
2021/12/03 02:38:00;;;;;;;;;;;;;;;;;;2073287;28;1200;-83
2021/12/03 02:39:02;;;;;;;;;;;;;;;;;;2065169;28;1895;-83
2021/12/03 02:40:04;;;;;;;;;;;;;;;;;;2073685;28;1446;-83
2021/12/03 02:41:06;;;;;;;;;;;;;;;;;;2065811;28;1263;-83
2021/12/03 02:42:06;;;;;;;;;;;;;;;;;;2073484;28;1825;-83
2021/12/03 02:43:08;;;;;;;;;;;;;;;;;;2074225;28;1027;-82
2021/12/03 02:44:09;;;;;;;;;;;;;;;;;;2065253;28;1326;-82
2021/12/03 02:45:11;;;;;;;;;;;;;;;;;;2057302;28;1367;-82
2021/12/03 02:46:12;;;;;;;;;;;;;;;;;;2057723;28;1910;-83
2021/12/03 02:47:13;;;;;;;;;;;;;;;;;;2065610;28;1282;-83
2021/12/03 02:48:14;;;;;;;;;;;;;;;;;;2065622;28;1252;-83
2021/12/03 02:49:16;;;;;;;;;;;;;;;;;;2065603;28;1359;-83
2021/12/03 02:50:19;;;;;;;;;;;;;;;;;;2057601;28;1349;-82
2021/12/03 02:51:20;;;;;;;;;;;;;;;;;;2066339;28;2086;-85
2021/12/03 02:52:23;;;;;;;;;;;;;;;;;;2065578;28;1165;-83
2021/12/03 02:53:24;;;;;;;;;;;;;;;;;;2065629;28;1357;-83
2021/12/03 02:54:26;;;;;;;;;;;;;;;;;;2065477;28;1298;-82
2021/12/03 02:55:27;;;;;;;;;;;;;;;;;;2057626;28;1257;-83
2021/12/03 02:56:28;;;;;;;;;;;;;;;;;;2059265;28;1846;-82
2021/12/03 02:57:30;;;;;;;;;;;;;;;;;;2065428;28;1208;-83
2021/12/03 02:58:31;;;;;;;;;;;;;;;;;;2073687;28;1174;-83
2021/12/03 02:59:33;;;;;;;;;;;;;;;;;;2065449;28;1910;-82
2021/12/03 03:00:35;;;;;;;;;;;;;;;;;;2057459;28;1365;-82
2021/12/03 03:01:36;;;;;;;;;;;;;;;;;;2060905;28;1177;-82
2021/12/03 03:02:37;;;;;;;;;;;;;;;;;;2073626;28;816;-82
2021/12/03 03:03:39;;;;;;;;;;;;;;;;;;2065575;28;1288;-82
2021/12/03 03:04:39;;;;;;;;;;;;;;;;;;2065498;28;780;-82
2021/12/03 03:05:41;;;;;;;;;;;;;;;;;;2065275;28;1225;-83
2021/12/03 03:06:42;;;;;;;;;;;;;;;;;;2065592;28;1981;-84
2021/12/03 03:07:46;;;;;;;;;;;;;;;;;;2073865;28;1248;-83
2021/12/03 03:08:48;;;;;;;;;;;;;;;;;;2081802;28;1392;-82
2021/12/03 03:09:49;;;;;;;;;;;;;;;;;;2081781;28;1532;-81
2021/12/03 03:10:50;;;;;;;;;;;;;;;;;;2073513;28;1268;-83
2021/12/03 03:11:51;;;;;;;;;;;;;;;;;;2073869;28;1889;-83
2021/12/03 03:12:53;;;;;;;;;;;;;;;;;;2073434;28;1243;-82
2021/12/03 03:13:55;;;;;;;;;;;;;;;;;;2073309;28;1056;-83
2021/12/03 03:14:57;;;;;;;;;;;;;;;;;;2073730;28;1258;-83
2021/12/03 03:15:59;;;;;;;;;;;;;;;;;;2065542;28;1367;-83
2021/12/03 03:17:00;;;;;;;;;;;;;;;;;;2064966;28;1827;-83
2021/12/03 03:18:07;;;;;;;;;;;;;;;;;;2065455;28;1058;-83
2021/12/03 03:19:10;;;;;;;;;;;;;;;;;;2065581;28;1216;-83
2021/12/03 03:20:11;;;;;;;;;;;;;;;;;;2065528;28;1902;-83
2021/12/03 03:21:12;;;;;;;;;;;;;;;;;;2073871;28;1930;-83
2021/12/03 03:22:13;;;;;;;;;;;;;;;;;;2079075;28;1276;-83
2021/12/03 03:23:18;;;;;;;;;;;;;;;;;;2057292;28;1264;-83
2021/12/03 03:24:18;;;;;;;;;;;;;;;;;;2057555;28;1491;-83
2021/12/03 03:25:20;;;;;;;;;;;;;;;;;;2065754;28;1248;-83
2021/12/03 03:26:22;;;;;;;;;;;;;;;;;;2064530;28;2024;-83
2021/12/03 03:27:22;;;;;;;;;;;;;;;;;;2065562;28;1419;-83
2021/12/03 03:28:25;;;;;;;;;;;;;;;;;;2073350;28;954;-83
2021/12/03 03:29:27;;;;;;;;;;;;;;;;;;2065583;28;1220;-84
2021/12/03 03:30:29;;;;;;;;;;;;;;;;;;2065060;28;1336;-83
2021/12/03 03:31:29;;;;;;;;;;;;;;;;;;2061882;28;1930;-83
2021/12/03 03:32:31;;;;;;;;;;;;;;;;;;2057134;28;1328;-82
2021/12/03 03:33:32;;;;;;;;;;;;;;;;;;2065649;28;895;-83
2021/12/03 03:34:33;;;;;;;;;;;;;;;;;;2073595;28;1237;-83
2021/12/03 03:35:34;;;;;;;;;;;;;;;;;;2065427;28;1262;-83
2021/12/03 03:36:37;;;;;;;;;;;;;;;;;;2056990;28;2029;-83
2021/12/03 03:37:38;;;;;;;;;;;;;;;;;;2057791;28;1311;-82
2021/12/03 03:38:41;;;;;;;;;;;;;;;;;;2065353;28;1177;-83
2021/12/03 03:39:42;;;;;;;;;;;;;;;;;;2065374;28;1910;-82
2021/12/03 03:40:45;;;;;;;;;;;;;;;;;;2065243;28;923;-82
2021/12/03 03:41:47;;;;;;;;;;;;;;;;;;2073318;28;2036;-82
2021/12/03 03:42:49;;;;;;;;;;;;;;;;;;2073390;28;1389;-84
2021/12/03 03:43:50;;;;;;;;;;;;;;;;;;2065749;28;1260;-83
2021/12/03 03:44:51;;;;;;;;;;;;;;;;;;2065453;28;1255;-83
2021/12/03 03:45:52;;;;;;;;;;;;;;;;;;2073516;28;1005;-83
2021/12/03 03:46:56;;;;;;;;;;;;;;;;;;2073674;28;2071;-83
2021/12/03 03:47:57;;;;;;;;;;;;;;;;;;2065225;28;1295;-84
2021/12/03 03:48:59;;;;;;;;;;;;;;;;;;2057412;28;1249;-82
2021/12/03 03:49:59;;;;;;;;;;;;;;;;;;2058103;28;1314;-83
2021/12/03 03:51:01;;;;;;;;;;;;;;;;;;2067070;28;914;-83
2021/12/03 03:52:02;;;;;;;;;;;;;;;;;;2074310;28;1893;-83
2021/12/03 03:53:04;;;;;;;;;;;;;;;;;;2075350;28;1133;-83
2021/12/03 03:54:07;;;;;;;;;;;;;;;;;;2066755;28;1336;-83
2021/12/03 03:55:10;;;;;;;;;;;;;;;;;;2066907;28;1499;-84
2021/12/03 03:56:12;;;;;;;;;;;;;;;;;;2074485;28;1933;-83
2021/12/03 03:57:12;;;;;;;;;;;;;;;;;;2066939;28;1624;-82
2021/12/03 03:58:14;;;;;;;;;;;;;;;;;;2058480;28;1362;-81
2021/12/03 03:59:17;;;;;;;;;;;;;;;;;;2058898;28;1318;-84
2021/12/03 04:00:21;;;;;;;;;;;;;;;;;;2050938;28;1914;-82
2021/12/03 04:01:22;;;;;;;;;;;;;;;;;;2060571;28;2037;-82
2021/12/03 04:02:23;;;;;;;;;;;;;;;;;;2058527;28;1335;-82
2021/12/03 04:03:25;;;;;;;;;;;;;;;;;;2050958;28;1248;-83
2021/12/03 04:04:26;;;;;;;;;;;;;;;;;;2058666;28;1372;-82
2021/12/03 04:05:28;;;;;;;;;;;;;;;;;;2058921;28;1233;-83
2021/12/03 04:06:29;;;;;;;;;;;;;;;;;;2068836;28;1825;-83
2021/12/03 04:07:30;;;;;;;;;;;;;;;;;;2058998;28;1209;-83
2021/12/03 04:08:32;;;;;;;;;;;;;;;;;;2058889;28;1054;-83
2021/12/03 04:09:34;;;;;;;;;;;;;;;;;;2067656;28;835;-82
2021/12/03 04:11:03;;;;;;;;;;;;;;;;;;2067486;28;673;-83
2021/12/03 04:12:04;;;;;;;;;;;;;;;;;;2067353;28;906;-82
2021/12/03 04:13:05;;;;;;;;;;;;;;;;;;2067528;28;844;-82
2021/12/03 04:14:06;;;;;;;;;;;;;;;;;;2058562;28;1208;-82
2021/12/03 04:15:09;;;;;;;;;;;;;;;;;;2058880;28;1040;-82
2021/12/03 04:16:11;;;;;;;;;;;;;;;;;;2066870;28;1932;-83
2021/12/03 04:17:11;;;;;;;;;;;;;;;;;;2067171;28;1183;-82
2021/12/03 04:18:13;;;;;;;;;;;;;;;;;;2058740;28;1366;-82
2021/12/03 04:19:14;;;;;;;;;;;;;;;;;;2066701;28;956;-82
2021/12/03 04:20:16;;;;;;;;;;;;;;;;;;2066552;28;2015;-83
2021/12/03 04:21:18;;;;;;;;;;;;;;;;;;2066858;28;1382;-85
2021/12/03 04:22:23;;;;;;;;;;;;;;;;;;2069806;28;1230;-83
2021/12/03 04:23:25;;;;;;;;;;;;;;;;;;2074977;28;1290;-82
2021/12/03 04:24:25;;;;;;;;;;;;;;;;;;2074783;28;954;-83
2021/12/03 04:25:28;;;;;;;;;;;;;;;;;;2075446;28;773;-83
2021/12/03 04:26:29;;;;;;;;;;;;;;;;;;2074834;28;1262;-82
2021/12/03 04:27:31;;;;;;;;;;;;;;;;;;2074676;28;940;-82
2021/12/03 04:28:31;;;;;;;;;;;;;;;;;;2075167;28;871;-82
2021/12/03 04:29:33;;;;;;;;;;;;;;;;;;2074573;28;1123;-82
2021/12/03 04:30:34;;;;;;;;;;;;;;;;;;2074646;28;1211;-83
2021/12/03 04:31:35;;;;;;;;;;;;;;;;;;2070182;28;1894;-82
2021/12/03 04:32:36;;;;;;;;;;;;;;;;;;2066622;28;1220;-82
2021/12/03 04:33:38;;;;;;;;;;;;;;;;;;2066728;28;991;-83
2021/12/03 04:34:38;;;;;;;;;;;;;;;;;;2075472;28;934;-83
2021/12/03 04:35:40;;;;;;;;;;;;;;;;;;2075315;28;1128;-82
2021/12/03 04:36:42;;;;;;;;;;;;;;;;;;2074390;28;1308;-82
2021/12/03 04:37:42;;;;;;;;;;;;;;;;;;2074521;28;1323;-82
2021/12/03 04:38:44;;;;;;;;;;;;;;;;;;2074555;28;1196;-83
2021/12/03 04:39:45;;;;;;;;;;;;;;;;;;2074711;28;1914;-82
2021/12/03 04:40:48;;;;;;;;;;;;;;;;;;2066411;28;1259;-83
2021/12/03 04:41:48;;;;;;;;;;;;;;;;;;2066678;28;982;-82
2021/12/03 04:42:50;;;;;;;;;;;;;;;;;;2074517;28;1311;-82
2021/12/03 04:43:52;;;;;;;;;;;;;;;;;;2074876;28;1033;-82
2021/12/03 04:44:53;;;;;;;;;;;;;;;;;;2066330;28;1217;-82
2021/12/03 04:45:54;;;;;;;;;;;;;;;;;;2066274;28;1097;-84
2021/12/03 04:46:55;;;;;;;;;;;;;;;;;;2066417;28;1854;-82
2021/12/03 04:47:58;;;;;;;;;;;;;;;;;;2074068;28;1264;-82
2021/12/03 04:48:59;;;;;;;;;;;;;;;;;;2066670;28;1213;-82
2021/12/03 04:50:00;;;;;;;;;;;;;;;;;;2066137;28;1270;-82
2021/12/03 04:51:01;;;;;;;;;;;;;;;;;;2058566;28;1232;-83
2021/12/03 04:52:04;;;;;;;;;;;;;;;;;;2058542;28;1223;-83
2021/12/03 04:53:04;;;;;;;;;;;;;;;;;;2058748;28;1395;-83
2021/12/03 04:54:06;;;;;;;;;;;;;;;;;;2058543;28;1305;-82
2021/12/03 04:55:08;;;;;;;;;;;;;;;;;;2058584;28;1365;-82
2021/12/03 04:56:11;;;;;;;;;;;;;;;;;;2066503;28;870;-82
2021/12/03 04:57:11;;;;;;;;;;;;;;;;;;2075314;28;943;-83
2021/12/03 04:58:13;;;;;;;;;;;;;;;;;;2074825;28;1201;-82
2021/12/03 04:59:14;;;;;;;;;;;;;;;;;;2066473;28;1286;-82
2021/12/03 05:00:17;;;;;;;;;;;;;;;;;;2066186;28;1930;-83
2021/12/03 05:01:18;;;;;;;;;;;;;;;;;;2065457;28;2091;-83
2021/12/03 05:02:21;;;;;;;;;;;;;;;;;;2058179;28;1334;-83
2021/12/03 05:03:24;;;;;;;;;;;;;;;;;;2050647;28;1317;-82
2021/12/03 05:04:26;;;;;;;;;;;;;;;;;;2058567;28;965;-82
2021/12/03 05:05:31;;;;;;;;;;;;;;;;;;2058354;28;1371;-82
2021/12/03 05:06:52;;;;;;;;;;;;;;;;;;2058243;28;1213;-82
2021/12/03 05:07:57;;;;;;;;;;;;;;;;;;2061072;28;1244;-85
2021/12/03 05:08:59;;;;;;;;;;;;;;;;;;2066417;28;930;-82
2021/12/03 05:09:59;;;;;;;;;;;;;;;;;;2058255;28;1277;-82
2021/12/03 05:17:58;;;;;;;;;;;;;;;;;;2034241;29;948;-86
2021/12/03 05:21:07;;;;;;;;;;;;;;;;;;2049935;29;711;-81
2021/12/03 08:39:02;;;;;;;;;;;;;;;;;;2054005;28;1214;-84
2021/12/03 08:40:56;;;;;;;;;;;;;;;;;;2058783;28;1348;-89
2021/12/03 08:42:11;;;;;;;;;;;;;;;;;;2049623;29;1442;-87
2021/12/03 10:17:17;;;;;;;;;;;;;;;;;;2041300;29;904;-85
2021/12/03 10:29:17;;;;;;;;;;;;;;;;;;2011094;29;907;-85
2021/12/03 10:30:45;;;;;;;;;;;;;;;;;;2010780;29;1322;-84
2021/12/03 10:38:41;;;;;;;;;;;;;;;;;;2035083;29;1378;-85
2021/12/03 10:39:50;;;;;;;;;;;;;;;;;;2039966;29;1388;-85
2021/12/03 10:50:10;;;;;;;;;;;;;;;;;;2047882;28;1505;-84
2021/12/03 11:07:34;;;;;;;;;;;;;;;;;;2059297;28;1710;-84
2021/12/03 12:41:03;;;;;;;;;;;;;;;;;;2052939;28;1320;-85
2021/12/03 12:42:55;;;;;;;;;;;;;;;;;;2057445;28;2065;-83
2021/12/03 12:45:12;;;;;;;;;;;;;;;;;;2053127;28;1670;-84
2021/12/03 15:36:52;;;;;;;;;;;;;;;;;;2105257;28;1340;-83
2021/12/03 15:55:59;;;;;;;;;;;;;;;;;;2039983;28;1343;-84
2021/12/03 15:57:41;;;;;;;;;;;;;;;;;;2107006;28;1347;-84
2021/12/03 16:04:33;;;;;;;;;;;;;;;;;;2062902;28;1413;-83
2021/12/03 16:07:22;;;;;;;;;;;;;;;;;;2052358;28;2131;-83
2021/12/03 16:08:25;;;;;;;;;;;;;;;;;;2052733;28;1400;-83
2021/12/03 16:09:48;;;;;;;;;;;;;;;;;;2057942;28;1829;-82
2021/12/03 16:10:58;;;;;;;;;;;;;;;;;;2052337;28;1409;-82
2021/12/03 16:12:14;;;;;;;;;;;;;;;;;;2058263;28;1385;-83
2021/12/03 16:13:33;;;;;;;;;;;;;;;;;;2093318;28;1372;-83
2021/12/03 16:20:59;;;;;;;;;;;;;;;;;;;;;
2021/12/03 16:46:55;;;;;;;;;;;;;;;;;;2061091;28;1980;-81
2021/12/03 16:48:31;;;;;;;;;;;;;;;;;;2063585;28;1470;-82
2021/12/03 16:54:54;;;;;;;;;;;;;;;;;;2070308;28;1074;-83
2021/12/03 16:57:57;;;;;;;;;;;;;;;;;;2094368;28;1389;-82
2021/12/03 16:59:25;;;;;;;;;;;;;;;;;;2097857;28;1311;-84
2021/12/03 17:00:39;;;;;;;;;;;;;;;;;;2089578;28;1295;-81
2021/12/03 17:01:47;;;;;;;;;;;;;;;;;;2084197;28;1956;-83
2021/12/03 17:03:25;;;;;;;;;;;;;;;;;;2090947;28;912;-84
2021/12/03 17:04:51;;;;;;;;;;;;;;;;;;2056800;28;1386;-81
2021/12/03 17:48:47;;;;;;;;;;;;;;;;;;2081135;28;1425;-81
2021/12/03 17:51:39;;;;;;;;;;;;;;;;;;2081169;28;1357;-83
2021/12/03 17:54:57;;;;;;;;;;;;;;;;;;2086374;28;1240;-82
2021/12/03 17:56:10;;;;;;;;;;;;;;;;;;2090155;28;1296;-81
2021/12/03 17:57:24;;;;;;;;;;;;;;;;;;2096253;28;1352;-82
2021/12/03 17:58:31;;;;;;;;;;;;;;;;;;2095482;28;1364;-83
2021/12/03 17:59:42;;;;;;;;;;;;;;;;;;2095912;28;1259;-82
2021/12/03 18:00:48;;;;;;;;;;;;;;;;;;2092642;28;1339;-80
2021/12/03 18:02:06;;;;;;;;;;;;;;;;;;2084383;28;2068;-81
2021/12/03 18:03:22;;;;;;;;;;;;;;;;;;2083657;28;1679;-82
2021/12/03 18:08:15;;;;;;;;;;;;;;;;;;2095819;28;1181;-81
2021/12/03 18:09:50;;;;;;;;;;;;;;;;;;2098533;28;1257;-81
2021/12/03 18:11:35;;;;;;;;;;;;;;;;;;2098595;28;1181;-81
2021/12/03 18:18:39;;;;;;;;;;;;;;;;;;2068315;28;1437;-82
2021/12/03 18:52:57;;;;;;;;;;;;;;;;;;2025037;29;1230;-82
2021/12/03 18:55:36;;;;;;;;;;;;;;;;;;2037121;29;1309;-83
2021/12/03 18:56:43;;;;;;;;;;;;;;;;;;2053331;28;1235;-83
2021/12/03 18:58:00;;;;;;;;;;;;;;;;;;2051523;28;1244;-83
2021/12/03 18:59:14;;;;;;;;;;;;;;;;;;2051823;28;1344;-82
2021/12/03 19:00:29;;;;;;;;;;;;;;;;;;2071893;28;1246;-83
2021/12/03 19:01:41;;;;;;;;;;;;;;;;;;2083536;28;1236;-84
2021/12/03 19:03:02;;;;;;;;;;;;;;;;;;2081844;28;1297;-84
2021/12/03 19:04:39;;;;;;;;;;;;;;;;;;2092766;28;1256;-83
2021/12/03 19:06:06;;;;;;;;;;;;;;;;;;2081732;28;1207;-82
2021/12/03 19:07:29;;;;;;;;;;;;;;;;;;2077661;28;2008;-84
2021/12/03 19:08:36;;;;;;;;;;;;;;;;;;2087644;28;1236;-85
2021/12/03 19:09:48;;;;;;;;;;;;;;;;;;2086504;28;1312;-84
2021/12/03 19:11:03;;;;;;;;;;;;;;;;;;2073628;28;1344;-84
2021/12/03 19:12:07;;;;;;;;;;;;;;;;;;2082548;28;1319;-82
2021/12/03 19:13:15;;;;;;;;;;;;;;;;;;2072949;28;1300;-81
2021/12/03 19:14:18;;;;;;;;;;;;;;;;;;2072295;28;1474;-82
2021/12/03 19:15:21;;;;;;;;;;;;;;;;;;2075285;28;1595;-82
2021/12/03 19:16:23;;;;;;;;;;;;;;;;;;2082736;28;1373;-79
2021/12/03 19:17:27;;;;;;;;;;;;;;;;;;2090020;28;1283;-81
2021/12/03 19:18:28;;;;;;;;;;;;;;;;;;2087985;28;1445;-81
2021/12/03 19:19:33;;;;;;;;;;;;;;;;;;2077796;28;1292;-82
2021/12/03 19:20:38;;;;;;;;;;;;;;;;;;2082654;28;1362;-82
2021/12/03 19:21:43;;;;;;;;;;;;;;;;;;2081500;28;2085;-82
2021/12/03 19:22:46;;;;;;;;;;;;;;;;;;2083298;28;1344;-82
2021/12/03 19:23:48;;;;;;;;;;;;;;;;;;2090735;28;1504;-82
2021/12/03 19:24:57;;;;;;;;;;;;;;;;;;2082592;28;1339;-84
2021/12/03 19:26:04;;;;;;;;;;;;;;;;;;2084463;28;1311;-83
2021/12/03 19:27:05;;;;;;;;;;;;;;;;;;2090921;28;1938;-83
2021/12/03 19:28:13;;;;;;;;;;;;;;;;;;2090938;28;1319;-83
2021/12/03 19:29:18;;;;;;;;;;;;;;;;;;2081510;28;1380;-82
2021/12/03 19:30:21;;;;;;;;;;;;;;;;;;2090302;28;1339;-81
2021/12/03 19:31:24;;;;;;;;;;;;;;;;;;2084174;28;1470;-83
2021/12/03 19:32:31;;;;;;;;;;;;;;;;;;2083076;28;1108;-81
2021/12/03 19:33:33;;;;;;;;;;;;;;;;;;2090947;28;1421;-81
2021/12/03 19:34:37;;;;;;;;;;;;;;;;;;2074446;28;1503;-81
2021/12/03 19:35:39;;;;;;;;;;;;;;;;;;2062828;28;1454;-82
2021/12/03 19:36:46;;;;;;;;;;;;;;;;;;2078762;28;2034;-83
2021/12/03 19:37:52;;;;;;;;;;;;;;;;;;2091805;28;1272;-84
2021/12/03 19:38:55;;;;;;;;;;;;;;;;;;2086606;28;1338;-83
2021/12/03 19:40:00;;;;;;;;;;;;;;;;;;2091052;28;1468;-83
2021/12/03 19:41:08;;;;;;;;;;;;;;;;;;2075649;28;1291;-84
2021/12/03 19:42:19;;;;;;;;;;;;;;;;;;2084405;28;1198;-84
2021/12/03 19:45:03;;;;;;;;;;;;;;;;;;2096243;28;1319;-85
2021/12/03 19:46:17;;;;;;;;;;;;;;;;;;2106756;28;1608;-83
2021/12/03 19:47:25;;;;;;;;;;;;;;;;;;2086613;28;1914;-82
2021/12/03 19:48:37;;;;;;;;;;;;;;;;;;2084704;28;1319;-83
2021/12/03 19:50:05;;;;;;;;;;;;;;;;;;2103374;28;1303;-83
2021/12/03 19:51:13;;;;;;;;;;;;;;;;;;2104094;28;1231;-83
2021/12/03 19:52:23;;;;;;;;;;;;;;;;;;2099138;28;1329;-84
2021/12/03 19:53:30;;;;;;;;;;;;;;;;;;2101147;28;792;-83
2021/12/03 19:54:48;;;;;;;;;;;;;;;;;;2107353;28;1331;-84
2021/12/03 19:55:56;;;;;;;;;;;;;;;;;;2101009;28;1457;-83
2021/12/03 19:56:59;;;;;;;;;;;;;;;;;;2091079;28;1950;-83
2021/12/03 19:58:11;;;;;;;;;;;;;;;;;;2090601;28;1442;-85
2021/12/03 19:59:24;;;;;;;;;;;;;;;;;;2101133;28;1398;-83
2021/12/03 20:00:35;;;;;;;;;;;;;;;;;;2107610;28;1368;-85
2021/12/03 20:01:37;;;;;;;;;;;;;;;;;;2104104;28;1309;-83
2021/12/03 20:02:39;;;;;;;;;;;;;;;;;;2102490;28;1294;-82
2021/12/03 20:03:43;;;;;;;;;;;;;;;;;;2107546;28;1279;-83
2021/12/03 20:04:45;;;;;;;;;;;;;;;;;;2090381;28;1370;-82
2021/12/03 20:05:46;;;;;;;;;;;;;;;;;;2091420;28;1221;-82
2021/12/03 20:06:52;;;;;;;;;;;;;;;;;;2099173;28;767;-82
2021/12/03 20:07:56;;;;;;;;;;;;;;;;;;2085385;28;1906;-84
2021/12/03 20:08:58;;;;;;;;;;;;;;;;;;2090758;28;1284;-81
2021/12/03 20:10:04;;;;;;;;;;;;;;;;;;2090607;28;1267;-81
2021/12/03 20:11:06;;;;;;;;;;;;;;;;;;2098033;28;1275;-81
2021/12/03 20:12:13;;;;;;;;;;;;;;;;;;2095762;28;1688;-82